Time;durP1;ratioP1;P1;durP2;ratioP2;P2;SDS_P1;SDS_P2;PMS_P1;PMS_P2;Temp;Humidity;BMP_temperature;BMP_pressure;BME280_temperature;BME280_humidity;BME280_pressure;Samples;Min_cycle;Max_cycle;Signal;HPM_P1;HPM_P2
2021/06/29 00:00:30;;;;;;;5.53;1.40;;;;;;;12.98;100.00;99992.91;6190254;23;20031;-77
2021/06/29 00:03:33;;;;;;;7.07;1.58;;;;;;;12.92;100.00;99989.28;6196909;23;20024;-78
2021/06/29 00:06:36;;;;;;;4.50;1.58;;;;;;;12.95;100.00;99991.06;6196525;23;20024;-78
2021/06/29 00:09:40;;;;;;;8.25;2.22;;;;;;;12.98;100.00;99998.50;6196983;23;20047;-78
2021/06/29 00:12:43;;;;;;;2.60;1.92;;;;;;;13.00;100.00;99995.97;6196999;23;20028;-76
2021/06/29 00:15:48;;;;;;;4.70;1.17;;;;;;;12.98;100.00;99994.94;6196693;23;20024;-75
2021/06/29 00:18:52;;;;;;;1.83;0.63;;;;;;;12.94;100.00;99984.75;6196551;23;20510;-75
2021/06/29 00:21:55;;;;;;;5.18;1.85;;;;;;;12.98;100.00;99981.72;6196541;23;20028;-76
2021/06/29 00:24:59;;;;;;;6.43;1.60;;;;;;;12.97;100.00;99983.00;6196256;23;20359;-75
2021/06/29 00:28:02;;;;;;;3.28;0.88;;;;;;;13.04;100.00;99985.34;6196492;23;20339;-75
2021/06/29 00:31:06;;;;;;;4.68;1.17;;;;;;;13.00;100.00;99987.59;6196475;23;20024;-75
2021/06/29 00:34:10;;;;;;;3.58;1.25;;;;;;;13.02;100.00;99987.09;6196413;23;20352;-75
2021/06/29 00:37:14;;;;;;;3.58;1.45;;;;;;;12.93;100.00;99994.38;6196430;23;20050;-76
2021/06/29 00:40:18;;;;;;;5.80;1.05;;;;;;;12.93;100.00;99985.22;6178198;23;20036;-76
2021/06/29 00:43:21;;;;;;;8.00;1.83;;;;;;;12.96;100.00;99987.03;6196296;23;20023;-76
2021/06/29 00:46:25;;;;;;;6.03;1.83;;;;;;;13.01;100.00;99983.56;6178008;23;20024;-75
2021/06/29 00:49:28;;;;;;;3.05;1.73;;;;;;;12.95;100.00;99977.09;6196328;23;20024;-75
2021/06/29 00:52:32;;;;;;;7.65;2.30;;;;;;;12.90;100.00;99975.78;6196361;23;20040;-75
2021/06/29 00:55:36;;;;;;;1.75;1.00;;;;;;;12.95;100.00;99971.50;6196012;23;20027;-75
2021/06/29 00:58:44;;;;;;;6.28;1.58;;;;;;;13.00;100.00;99968.03;6196099;23;20024;-76
2021/06/29 01:01:47;;;;;;;8.52;2.30;;;;;;;13.03;100.00;99961.47;6195447;23;20024;-75
2021/06/29 01:04:51;;;;;;;3.78;1.13;;;;;;;12.94;100.00;99947.63;6196342;23;20032;-75
2021/06/29 01:07:54;;;;;;;3.85;1.42;;;;;;;12.96;100.00;99953.50;6197210;23;20462;-76
2021/06/29 01:10:58;;;;;;;6.05;1.58;;;;;;;12.89;100.00;99963.06;6196160;23;20470;-76
2021/06/29 01:14:16;;;;;;;4.68;1.52;;;;;;;12.90;100.00;99964.63;6196061;23;20024;-76
2021/06/29 01:17:19;;;;;;;5.25;1.90;;;;;;;12.88;100.00;99967.13;6196178;23;20024;-76
2021/06/29 01:20:30;;;;;;;3.20;0.82;;;;;;;12.87;100.00;99960.00;6196002;23;20028;-76
2021/06/29 01:23:35;;;;;;;9.35;2.17;;;;;;;12.86;100.00;99963.28;6196007;23;20028;-74
2021/06/29 01:26:44;;;;;;;6.03;1.48;;;;;;;12.86;100.00;99964.03;6195911;23;20027;-74
2021/06/29 01:32:52;;;;;;;4.68;1.42;;;;;;;12.90;100.00;99963.84;6195947;23;20466;-75
2021/06/29 01:35:55;;;;;;;4.15;1.80;;;;;;;12.86;100.00;99960.50;6195881;23;20039;-75
2021/06/29 01:38:58;;;;;;;3.65;1.70;;;;;;;12.85;100.00;99954.13;6195754;23;20028;-75
2021/06/29 01:42:02;;;;;;;3.95;1.55;;;;;;;12.86;100.00;99949.31;6195929;23;20044;-75
2021/06/29 01:45:07;;;;;;;5.53;2.35;;;;;;;12.83;100.00;99939.09;6195646;23;20039;-75
2021/06/29 01:48:25;;;;;;;3.40;1.17;;;;;;;12.81;100.00;99936.03;6195867;23;20033;-75
2021/06/29 01:51:29;;;;;;;7.85;1.48;;;;;;;12.86;100.00;99924.16;6195752;23;20058;-74
2021/06/29 01:54:33;;;;;;;11.18;1.10;;;;;;;12.89;100.00;99920.38;6195538;23;20340;-75
2021/06/29 01:57:42;;;;;;;6.13;1.73;;;;;;;12.79;100.00;99902.22;6195592;23;20039;-76
2021/06/29 02:00:47;;;;;;;6.82;1.50;;;;;;;12.68;100.00;99904.84;6188100;23;20028;-75
2021/06/29 02:03:51;;;;;;;4.65;1.40;;;;;;;12.63;100.00;99903.53;6195673;23;20031;-75
2021/06/29 02:06:54;;;;;;;5.90;1.30;;;;;;;12.63;100.00;99911.13;6195422;23;20486;-74
2021/06/29 02:09:58;;;;;;;10.65;1.65;;;;;;;12.64;100.00;99907.09;6195386;23;20024;-76
2021/06/29 02:13:01;;;;;;;3.47;1.52;;;;;;;12.64;100.00;99898.72;6195135;23;20454;-75
2021/06/29 02:16:05;;;;;;;5.72;1.55;;;;;;;12.59;100.00;99902.19;6195161;23;20344;-75
2021/06/29 02:19:09;;;;;;;4.07;1.15;;;;;;;12.54;100.00;99894.53;6195341;23;20024;-75
2021/06/29 02:22:13;;;;;;;4.32;1.42;;;;;;;12.52;100.00;99899.81;6195510;23;20320;-75
2021/06/29 02:25:17;;;;;;;2.20;0.68;;;;;;;12.46;100.00;99896.97;6195336;23;20024;-75
2021/06/29 02:28:20;;;;;;;8.15;1.98;;;;;;;12.43;100.00;99897.16;6176972;23;20024;-75
2021/06/29 02:31:23;;;;;;;4.43;1.60;;;;;;;12.39;100.00;99896.63;6195171;23;20040;-75
2021/06/29 02:34:27;;;;;;;8.25;2.08;;;;;;;12.38;100.00;99889.47;6195322;23;20043;-75
2021/06/29 02:37:30;;;;;;;7.55;1.75;;;;;;;12.34;100.00;99883.34;6195323;23;20020;-75
2021/06/29 02:40:34;;;;;;;4.53;1.20;;;;;;;12.28;100.00;99886.03;6195308;23;20027;-74
2021/06/29 02:43:40;;;;;;;2.95;0.95;;;;;;;12.17;100.00;99878.25;6176991;23;20032;-75
2021/06/29 02:46:43;;;;;;;3.70;1.45;;;;;;;12.14;100.00;99876.47;6194159;23;20348;-75
2021/06/29 02:49:46;;;;;;;5.05;2.10;;;;;;;12.13;100.00;99866.53;6195183;23;20024;-75
2021/06/29 02:52:50;;;;;;;9.80;1.48;;;;;;;12.08;100.00;99883.97;6195240;23;20024;-75
2021/06/29 02:55:53;;;;;;;3.70;1.73;;;;;;;12.04;100.00;99877.81;6195082;23;20020;-75
2021/06/29 02:58:57;;;;;;;7.88;1.90;;;;;;;11.97;100.00;99878.25;6195142;23;20024;-75
2021/06/29 03:02:00;;;;;;;3.88;1.40;;;;;;;11.95;100.00;99883.50;6195200;23;20383;-74
2021/06/29 03:05:05;;;;;;;5.70;1.88;;;;;;;11.93;100.00;99874.84;6195072;23;20043;-75
2021/06/29 03:08:09;;;;;;;5.32;1.38;;;;;;;11.95;100.00;99880.72;6195215;23;20028;-74
2021/06/29 03:11:12;;;;;;;2.95;1.13;;;;;;;12.01;100.00;99870.44;6195310;23;20044;-75
2021/06/29 03:14:16;;;;;;;3.78;2.25;;;;;;;12.07;100.00;99876.88;6196019;23;20032;-74
2021/06/29 03:17:19;;;;;;;10.48;1.35;;;;;;;12.16;100.00;99887.13;6195132;23;20339;-74
2021/06/29 03:20:23;;;;;;;12.60;3.05;;;;;;;12.21;100.00;99885.69;6194792;23;20024;-74
2021/06/29 03:23:26;;;;;;;12.02;3.72;;;;;;;12.23;100.00;99877.59;6194733;23;20044;-74
2021/06/29 03:26:30;;;;;;;4.85;2.03;;;;;;;12.29;100.00;99887.59;6196151;23;20024;-75
2021/06/29 03:29:34;;;;;;;12.15;2.45;;;;;;;12.36;100.00;99897.56;6196940;23;20028;-75
2021/06/29 03:32:38;;;;;;;9.77;2.78;;;;;;;12.41;100.00;99894.84;6196917;23;20040;-75
2021/06/29 03:35:41;;;;;;;18.73;2.63;;;;;;;12.47;100.00;99900.53;6196992;23;20474;-74
2021/06/29 03:38:45;;;;;;;7.80;2.30;;;;;;;12.53;100.00;99904.16;6196882;23;20028;-75
2021/06/29 03:41:49;;;;;;;11.40;2.35;;;;;;;12.61;100.00;99899.69;6196962;23;20028;-74
2021/06/29 03:44:52;;;;;;;14.77;2.00;;;;;;;12.68;100.00;99902.06;6196938;23;20028;-74
2021/06/29 03:47:55;;;;;;;22.13;4.80;;;;;;;12.61;100.00;99906.03;6196897;23;20478;-75
2021/06/29 03:50:59;;;;;;;13.10;1.80;;;;;;;12.64;100.00;99904.31;6196826;23;20028;-75
2021/06/29 03:54:03;;;;;;;3.97;1.67;;;;;;;12.65;100.00;99898.22;6196809;23;20417;-75
2021/06/29 03:57:06;;;;;;;10.63;3.08;;;;;;;12.66;100.00;99904.59;6196787;23;20024;-75
2021/06/29 04:00:11;;;;;;;8.32;2.15;;;;;;;12.63;100.00;99905.53;6191688;23;20032;-74
2021/06/29 04:03:14;;;;;;;9.75;1.98;;;;;;;12.67;100.00;99903.31;6196776;23;20028;-74
2021/06/29 04:06:18;;;;;;;3.60;1.48;;;;;;;12.65;100.00;99903.03;6196488;23;20044;-75
2021/06/29 04:09:21;;;;;;;3.20;1.50;;;;;;;12.63;100.00;99899.97;6196714;23;20024;-75
2021/06/29 04:12:26;;;;;;;5.75;1.98;;;;;;;12.64;100.00;99907.09;6178390;23;20024;-75
2021/06/29 04:15:30;;;;;;;6.55;1.40;;;;;;;12.65;100.00;99898.22;6178597;23;20020;-75
2021/06/29 04:18:33;;;;;;;5.22;2.33;;;;;;;12.69;100.00;99903.63;6196769;23;20040;-75
2021/06/29 04:21:36;;;;;;;30.35;4.05;;;;;;;12.65;100.00;99897.44;6196593;23;20352;-75
2021/06/29 04:24:39;;;;;;;7.45;1.10;;;;;;;12.66;100.00;99907.38;6196414;23;20024;-75
2021/06/29 04:27:43;;;;;;;13.27;2.88;;;;;;;12.63;100.00;99905.53;6196328;23;20048;-75
2021/06/29 04:30:46;;;;;;;16.20;2.08;;;;;;;12.62;100.00;99906.81;6196346;23;20028;-74
2021/06/29 04:33:50;;;;;;;7.20;1.58;;;;;;;12.64;100.00;99904.31;6196176;23;20024;-75
2021/06/29 04:36:53;;;;;;;10.57;2.15;;;;;;;12.73;100.00;99906.97;6196094;23;20020;-75
2021/06/29 04:39:56;;;;;;;13.48;2.35;;;;;;;12.74;100.00;99911.28;6196385;23;20028;-75
2021/06/29 04:43:00;;;;;;;5.50;1.95;;;;;;;12.74;100.00;99912.06;6196494;23;20028;-75
2021/06/29 04:46:04;;;;;;;10.63;2.15;;;;;;;12.74;100.00;99911.28;6196259;23;20044;-75
2021/06/29 04:49:08;;;;;;;4.18;1.13;;;;;;;12.72;100.00;99924.97;6196442;23;20466;-75
2021/06/29 04:52:12;;;;;;;9.35;1.60;;;;;;;12.75;100.00;99918.41;6196431;23;20036;-75
2021/06/29 04:55:17;;;;;;;5.55;1.33;;;;;;;12.75;100.00;99907.25;6196136;23;20044;-75
2021/06/29 04:58:20;;;;;;;8.57;2.00;;;;;;;12.77;100.00;99915.91;6196255;23;20032;-75
2021/06/29 05:01:24;;;;;;;7.95;1.45;;;;;;;12.76;100.00;99909.53;6195992;23;20036;-76
2021/06/29 05:04:27;;;;;;;5.72;2.10;;;;;;;12.78;100.00;99917.44;6196147;23;20020;-75
2021/06/29 05:07:31;;;;;;;6.30;1.98;;;;;;;12.80;100.00;99917.69;6196065;23;20028;-75
2021/06/29 05:10:35;;;;;;;5.07;1.60;;;;;;;12.83;100.00;99919.53;6195897;23;20032;-76
2021/06/29 05:13:38;;;;;;;2.55;1.05;;;;;;;12.84;100.00;99915.50;6196220;23;20028;-76
2021/06/29 05:16:41;;;;;;;9.13;1.80;;;;;;;12.89;100.00;99918.34;6195987;23;20024;-76
2021/06/29 05:19:45;;;;;;;14.63;2.67;;;;;;;12.93;100.00;99915.31;6196897;23;20028;-75
2021/06/29 05:22:48;;;;;;;7.85;1.45;;;;;;;12.94;100.00;99914.06;6195938;23;20044;-75
2021/06/29 05:25:52;;;;;;;10.30;1.98;;;;;;;12.96;100.00;99905.97;6195870;23;20347;-74
2021/06/29 05:28:56;;;;;;;7.75;2.20;;;;;;;13.01;100.00;99916.47;6196001;23;20028;-75
2021/06/29 05:31:59;;;;;;;7.03;1.90;;;;;;;13.05;100.00;99914.25;6195977;23;20020;-75
2021/06/29 05:35:04;;;;;;;6.93;1.75;;;;;;;13.06;100.00;99915.75;6195855;23;20032;-75
2021/06/29 05:38:07;;;;;;;6.30;1.63;;;;;;;13.05;100.00;99919.84;6195925;23;20024;-75
2021/06/29 05:41:11;;;;;;;10.52;2.58;;;;;;;13.10;100.00;99927.53;6195805;23;20028;-75
2021/06/29 05:44:14;;;;;;;10.30;2.47;;;;;;;13.10;100.00;99921.94;6195725;23;20032;-76
2021/06/29 05:47:21;;;;;;;5.18;2.10;;;;;;;13.12;100.00;99929.81;6195312;23;20478;-75
2021/06/29 05:50:25;;;;;;;8.75;2.22;;;;;;;13.15;100.00;99932.41;6195687;23;20020;-75
2021/06/29 05:53:30;;;;;;;9.43;3.20;;;;;;;13.21;100.00;99933.22;6195840;23;20028;-75
2021/06/29 05:56:33;;;;;;;9.85;2.47;;;;;;;13.22;100.00;99940.38;6195647;23;20024;-75
2021/06/29 05:59:37;;;;;;;8.90;2.00;;;;;;;13.23;100.00;99944.69;6174528;23;20036;-75
2021/06/29 06:02:41;;;;;;;11.80;2.72;;;;;;;13.30;100.00;99941.47;6195556;23;20024;-75
2021/06/29 06:05:44;;;;;;;5.07;1.27;;;;;;;13.30;100.00;99951.88;6195484;23;20028;-75
2021/06/29 06:08:48;;;;;;;10.02;2.63;;;;;;;13.30;100.00;99958.25;6195684;23;20024;-74
2021/06/29 06:11:51;;;;;;;8.23;2.10;;;;;;;13.36;100.00;99961.88;6195674;23;20463;-75
2021/06/29 06:14:55;;;;;;;14.43;2.90;;;;;;;13.47;100.00;99961.25;6195438;23;20359;-76
2021/06/29 06:18:03;;;;;;;8.00;2.42;;;;;;;13.57;100.00;99955.00;6195423;23;20028;-75
2021/06/29 06:21:07;;;;;;;8.73;2.35;;;;;;;13.58;100.00;99956.50;6195507;23;20028;-75
2021/06/29 06:24:10;;;;;;;11.88;2.70;;;;;;;13.54;100.00;99958.75;6195459;23;20028;-75
2021/06/29 06:27:15;;;;;;;7.75;2.92;;;;;;;13.61;100.00;99951.97;6194247;23;20478;-75
2021/06/29 06:30:19;;;;;;;10.57;2.10;;;;;;;13.75;100.00;99955.91;6195405;23;20462;-74
2021/06/29 06:33:23;;;;;;;3.40;1.75;;;;;;;13.78;100.00;99955.69;6195406;23;20024;-76
2021/06/29 06:36:26;;;;;;;7.65;2.70;;;;;;;13.86;100.00;99965.16;6195263;23;20454;-75
2021/06/29 06:39:30;;;;;;;16.13;3.53;;;;;;;13.91;100.00;99960.88;6195391;23;20043;-75
2021/06/29 06:42:33;;;;;;;36.28;5.55;;;;;;;14.07;100.00;99954.66;6195138;23;20047;-76
2021/06/29 06:45:37;;;;;;;39.97;8.10;;;;;;;14.00;100.00;99957.91;6195196;23;20039;-76
2021/06/29 06:48:42;;;;;;;26.58;7.47;;;;;;;14.12;100.00;99965.16;6195172;23;20048;-75
2021/06/29 06:51:46;;;;;;;32.50;7.10;;;;;;;14.30;100.00;99964.78;6194814;23;20024;-75
2021/06/29 06:59:06;;;;;;;10.15;3.67;;;;;;;14.86;100.00;99972.28;6194757;23;20024;-75
2021/06/29 07:02:09;;;;;;;16.17;2.72;;;;;;;15.16;100.00;99979.03;6176629;23;20074;-74
2021/06/29 07:05:13;;;;;;;15.88;3.75;;;;;;;15.36;100.00;99986.50;6193610;23;20032;-74
2021/06/29 07:08:16;;;;;;;10.73;3.00;;;;;;;15.49;100.00;99984.03;6194701;23;20043;-74
2021/06/29 07:11:20;;;;;;;15.35;3.35;;;;;;;15.60;100.00;99988.91;6255024;22;20027;-60
2021/06/29 07:14:23;;;;;;;7.28;2.42;;;;;;;15.66;100.00;99976.41;6285230;22;20023;-60
2021/06/29 07:17:27;;;;;;;10.43;2.85;;;;;;;15.83;100.00;99987.69;6285085;22;20038;-60
2021/06/29 07:20:31;;;;;;;8.93;2.55;;;;;;;16.03;100.00;99983.84;6285843;22;20039;-60
2021/06/29 07:23:35;;;;;;;11.57;3.20;;;;;;;16.30;100.00;99988.72;6285188;22;20023;-60
2021/06/29 07:26:38;;;;;;;8.90;2.47;;;;;;;16.48;100.00;99980.53;6285601;22;20027;-60
2021/06/29 07:29:41;;;;;;;6.75;2.38;;;;;;;16.65;100.00;99980.53;6285858;22;20038;-60
2021/06/29 07:32:45;;;;;;;6.88;2.25;;;;;;;17.03;100.00;99979.66;6286037;22;20027;-60
2021/06/29 07:35:48;;;;;;;6.45;2.33;;;;;;;17.35;100.00;99972.34;6285690;22;20027;-60
2021/06/29 07:38:54;;;;;;;8.13;2.47;;;;;;;17.37;100.00;99971.81;6285544;22;20023;-60
2021/06/29 07:41:57;;;;;;;3.78;1.33;;;;;;;17.22;100.00;99977.00;6286225;22;20027;-61
2021/06/29 07:45:01;;;;;;;5.50;1.80;;;;;;;17.29;100.00;99974.44;6286004;22;20031;-60
2021/06/29 07:48:06;;;;;;;7.95;3.40;;;;;;;17.24;100.00;99971.63;6285016;22;20022;-61
2021/06/29 07:51:10;;;;;;;3.67;1.65;;;;;;;17.05;100.00;99963.03;6279279;22;20027;-60
2021/06/29 07:54:13;;;;;;;5.40;1.67;;;;;;;16.96;100.00;99965.34;6284826;22;20023;-60
2021/06/29 07:57:17;;;;;;;5.80;2.75;;;;;;;16.90;100.00;99967.41;6285810;22;20022;-60
2021/06/29 08:00:21;;;;;;;3.13;2.05;;;;;;;16.99;100.00;99967.13;6284823;22;20475;-60
2021/06/29 08:03:25;;;;;;;6.93;1.70;;;;;;;17.04;100.00;99966.38;6284728;22;20435;-60
2021/06/29 08:06:29;;;;;;;6.47;2.47;;;;;;;17.12;100.00;99962.50;6265923;22;20027;-60
2021/06/29 08:09:32;;;;;;;7.18;1.98;;;;;;;17.36;100.00;99964.69;6285202;22;20344;-60
2021/06/29 08:12:36;;;;;;;5.55;1.50;;;;;;;17.31;100.00;99968.28;6286540;22;20026;-60
2021/06/29 08:15:40;;;;;;;3.88;2.00;;;;;;;17.09;100.00;99971.19;6287370;22;20026;-60
2021/06/29 08:18:44;;;;;;;6.38;1.67;;;;;;;16.88;100.00;99970.00;6288067;22;20320;-60
2021/06/29 08:21:48;;;;;;;2.92;0.73;;;;;;;16.94;100.00;99963.06;6287549;22;20447;-60
2021/06/29 08:24:51;;;;;;;3.85;1.65;;;;;;;17.08;100.00;99964.03;6287494;22;20027;-60
2021/06/29 08:27:55;;;;;;;3.97;1.88;;;;;;;17.32;100.00;99978.28;6287722;22;20030;-60
2021/06/29 08:30:58;;;;;;;6.07;2.15;;;;;;;17.73;100.00;99973.47;6269071;22;20022;-60
2021/06/29 08:34:01;;;;;;;7.38;2.25;;;;;;;17.68;100.00;99979.13;6287486;22;20046;-59
2021/06/29 08:37:05;;;;;;;5.90;2.00;;;;;;;17.43;100.00;99976.16;6286083;22;20339;-59
2021/06/29 08:40:11;;;;;;;11.77;2.58;;;;;;;17.65;100.00;99975.28;6287200;22;20023;-60
2021/06/29 08:43:15;;;;;;;4.22;1.88;;;;;;;17.80;100.00;99967.25;6287602;22;20522;-60
2021/06/29 08:46:18;;;;;;;8.73;1.58;;;;;;;17.78;100.00;99967.00;6287406;22;20372;-59
2021/06/29 08:49:22;;;;;;;6.18;1.67;;;;;;;17.55;100.00;99973.31;6286874;22;20467;-60
2021/06/29 08:52:27;;;;;;;6.53;2.13;;;;;;;17.64;100.00;99962.50;6258261;22;20035;-60
2021/06/29 08:55:38;;;;;;;7.20;2.15;;;;;;;18.07;100.00;99969.09;6286999;22;20051;-59
2021/06/29 08:58:43;;;;;;;5.03;1.70;;;;;;;18.29;100.00;99970.19;6287127;22;20022;-59
2021/06/29 09:01:46;;;;;;;6.30;2.08;;;;;;;17.97;100.00;99973.56;6286694;22;20464;-60
2021/06/29 09:04:54;;;;;;;4.05;1.52;;;;;;;17.71;100.00;99978.06;6287387;22;20023;-59
2021/06/29 09:08:14;;;;;;;3.40;1.33;;;;;;;17.50;100.00;99986.13;6286828;22;20039;-59
2021/06/29 09:11:17;;;;;;;6.03;2.13;;;;;;;17.38;100.00;99993.84;6286833;22;20022;-59
2021/06/29 09:14:29;;;;;;;6.05;2.72;;;;;;;17.31;100.00;99985.16;6285988;22;20030;-59
2021/06/29 09:17:37;;;;;;;6.95;1.85;;;;;;;17.24;100.00;99986.47;6286631;22;20023;-59
2021/06/29 09:20:48;;;;;;;9.27;1.98;;;;;;;17.25;100.00;99995.69;6286269;22;20026;-59
2021/06/29 09:23:52;;;;;;;;;;;;;;;17.28;100.00;99991.84;6286973;22;20026;-59
2021/06/29 09:26:55;;;;;;;10.40;2.83;;;;;;;17.29;100.00;99993.38;6285205;22;19915;-59
2021/06/29 09:29:59;;;;;;;10.63;2.50;;;;;;;17.37;100.00;99992.31;6287259;22;20764;-59
2021/06/29 09:33:09;;;;;;;8.00;1.90;;;;;;;17.57;100.00;99990.44;6286819;22;20027;-59
2021/06/29 09:36:15;;;;;;;5.28;1.90;;;;;;;17.64;100.00;99982.22;6286484;22;20462;-59
2021/06/29 09:39:20;;;;;;;6.35;1.55;;;;;;;17.85;100.00;99985.41;6286302;22;20451;-60
2021/06/29 09:42:26;;;;;;;10.38;1.70;;;;;;;18.03;100.00;99979.91;6266760;22;20027;-59
2021/06/29 09:45:33;;;;;;;4.22;1.48;;;;;;;18.40;100.00;99981.38;6287076;22;20022;-59
2021/06/29 09:48:39;;;;;;;3.05;1.00;;;;;;;18.57;100.00;99973.56;6286874;22;20707;-59
2021/06/29 09:51:47;;;;;;;9.02;1.73;;;;;;;18.45;100.00;99977.78;6279135;22;20027;-59
2021/06/29 09:54:51;;;;;;;3.55;0.93;;;;;;;18.64;100.00;99981.44;6286747;22;20032;-59
2021/06/29 09:58:08;;;;;;;3.47;1.35;;;;;;;18.71;100.00;99975.22;6286885;22;20019;-59
2021/06/29 10:01:18;;;;;;;3.13;1.15;;;;;;;18.86;100.00;99979.13;6286581;22;20339;-59
2021/06/29 10:04:21;;;;;;;4.20;1.27;;;;;;;19.36;100.00;99980.66;6286324;22;20067;-59
2021/06/29 10:07:25;;;;;;;8.30;2.33;;;;;;;19.35;100.00;99974.22;6286067;22;20690;-59
2021/06/29 10:10:29;;;;;;;6.47;2.00;;;;;;;19.19;100.00;99975.16;6267227;22;20019;-59
2021/06/29 10:13:39;;;;;;;4.00;0.93;;;;;;;19.15;100.00;99979.56;6286233;22;20027;-59
2021/06/29 10:16:47;;;;;;;4.33;1.40;;;;;;;19.14;100.00;99976.00;6286205;22;20026;-59
2021/06/29 10:20:12;;;;;;;3.80;1.10;;;;;;;18.98;100.00;99971.31;6286629;22;20039;-59
2021/06/29 10:23:16;;;;;;;2.55;1.25;;;;;;;18.79;100.00;99979.75;6286486;22;20309;-59
2021/06/29 10:26:21;;;;;;;4.18;1.10;;;;;;;18.90;100.00;99973.22;6286444;22;20324;-59
2021/06/29 10:29:27;;;;;;;3.97;1.27;;;;;;;19.19;100.00;99961.03;6286701;22;20027;-59
2021/06/29 10:32:31;;;;;;;4.50;1.45;;;;;;;19.58;100.00;99969.78;6286735;22;20022;-59
2021/06/29 10:35:36;;;;;;;4.95;1.25;;;;;;;19.92;100.00;99964.44;6286293;22;20071;-59
2021/06/29 10:38:40;;;;;;;11.02;1.70;;;;;;;20.17;100.00;99957.31;6286310;22;20034;-59
2021/06/29 10:41:50;;;;;;;2.53;1.58;;;;;;;20.38;100.00;99954.66;6286429;22;20762;-59
2021/06/29 10:44:54;;;;;;;;;;;;;;;20.60;100.00;99959.94;6286779;22;20027;-60
2021/06/29 10:48:23;;;;;;;2.65;1.10;;;;;;;20.76;100.00;99956.03;6286397;22;19911;-60
2021/06/29 10:51:38;;;;;;;9.77;1.88;;;;;;;20.79;100.00;99960.59;6279102;22;20035;-60
2021/06/29 10:54:47;;;;;;;12.63;1.65;;;;;;;20.89;100.00;99958.09;6286187;22;20019;-60
2021/06/29 10:57:59;;;;;;;3.22;0.90;;;;;;;20.52;100.00;99950.56;6286266;22;20451;-60
2021/06/29 11:01:21;;;;;;;12.45;1.08;;;;;;;20.65;100.00;99956.25;6286121;22;20026;-59
2021/06/29 11:04:46;;;;;;;6.88;1.55;;;;;;;21.17;100.00;99946.25;6285798;22;20031;-60
2021/06/29 11:07:50;;;;;;;4.88;1.60;;;;;;;21.41;100.00;99952.41;6285884;22;20027;-60
2021/06/29 11:10:55;;;;;;;8.18;1.77;;;;;;;21.23;100.00;99947.66;6267483;22;20027;-59
2021/06/29 11:13:59;;;;;;;2.65;1.20;;;;;;;20.87;100.00;99947.34;6286036;22;20046;-60
2021/06/29 11:17:03;;;;;;;5.40;1.08;;;;;;;20.76;100.00;99946.78;6285687;22;20042;-60
2021/06/29 11:20:10;;;;;;;5.65;1.00;;;;;;;20.62;100.00;99940.34;6285728;22;20050;-60
2021/06/29 11:23:23;;;;;;;2.03;0.70;;;;;;;20.47;100.00;99940.09;6286163;22;20019;-60
2021/06/29 11:26:27;;;;;;;11.68;1.10;;;;;;;20.19;100.00;99942.63;6285755;22;20027;-60
2021/06/29 11:29:38;;;;;;;1.98;0.63;;;;;;;20.08;100.00;99942.81;6285399;22;20042;-58
2021/06/29 11:32:42;;;;;;;3.75;0.73;;;;;;;20.02;100.00;99942.16;6285261;22;20022;-59
2021/06/29 11:35:46;;;;;;;3.00;1.42;;;;;;;20.09;100.00;99944.34;6283798;22;20023;-59
2021/06/29 11:38:54;;;;;;;2.30;0.85;;;;;;;20.48;100.00;99947.31;6285158;22;20063;-59
2021/06/29 11:42:02;;;;;;;2.83;1.02;;;;;;;20.95;100.00;99945.38;6285699;22;20027;-59
2021/06/29 11:45:07;;;;;;;1.83;0.63;;;;;;;21.22;100.00;99934.81;6285593;22;20027;-59
2021/06/29 11:48:47;;;;;;;6.32;1.15;;;;;;;21.74;100.00;99928.97;6286641;22;20019;-60
2021/06/29 11:52:11;;;;;;;1.98;0.85;;;;;;;22.20;100.00;99930.19;6260601;22;20026;-59
2021/06/29 11:55:18;;;;;;;3.33;0.88;;;;;;;22.17;100.00;99928.47;6270967;22;20019;-58
2021/06/29 11:58:22;;;;;;;5.25;1.02;;;;;;;22.56;100.00;99928.22;6287848;22;20038;-58
2021/06/29 12:01:26;;;;;;;10.90;1.00;;;;;;;22.33;100.00;99927.28;6286669;22;20022;-59
2021/06/29 12:04:30;;;;;;;4.53;0.68;;;;;;;22.19;100.00;99934.34;6287750;22;20023;-59
2021/06/29 12:07:42;;;;;;;5.97;0.60;;;;;;;22.44;100.00;99929.81;6287406;22;20023;-59
2021/06/29 12:10:49;;;;;;;4.63;0.70;;;;;;;22.10;100.00;99929.16;6287790;22;20035;-59
2021/06/29 12:13:52;;;;;;;2.30;0.95;;;;;;;21.69;100.00;99927.03;6287144;22;20026;-59
2021/06/29 12:17:00;;;;;;;3.35;0.90;;;;;;;21.52;100.00;99929.50;6287408;22;20034;-59
2021/06/29 12:20:09;;;;;;;5.03;0.93;;;;;;;21.41;100.00;99926.16;6268738;22;20333;-59
2021/06/29 12:23:15;;;;;;;2.60;0.75;;;;;;;21.24;100.00;99925.75;6287465;22;20022;-59
2021/06/29 12:26:19;;;;;;;4.30;0.98;;;;;;;21.11;100.00;99930.13;6286995;22;20035;-59
2021/06/29 12:29:36;;;;;;;2.08;1.08;;;;;;;20.97;100.00;99928.59;6286917;22;20030;-59
2021/06/29 12:32:42;;;;;;;1.45;0.40;;;;;;;20.87;100.00;99933.19;6286909;22;20463;-59
2021/06/29 12:35:49;;;;;;;1.50;0.40;;;;;;;20.79;100.00;99942.88;6287308;22;20023;-59
2021/06/29 12:39:00;;;;;;;3.92;1.10;;;;;;;20.79;100.00;99937.94;6267625;22;20022;-58
2021/06/29 12:42:09;;;;;;;0.95;0.38;;;;;;;20.71;100.00;99937.09;6286217;22;20323;-59
2021/06/29 12:45:13;;;;;;;1.80;0.55;;;;;;;20.65;100.00;99932.84;6286318;22;20035;-59
2021/06/29 12:48:18;;;;;;;4.28;0.50;;;;;;;20.76;100.00;99930.56;6287035;22;20023;-59
2021/06/29 12:51:21;;;;;;;12.88;1.35;;;;;;;20.97;100.00;99934.25;6280844;22;20047;-59
2021/06/29 12:54:32;;;;;;;0.63;0.35;;;;;;;21.46;100.00;99936.59;6286626;22;20030;-59
2021/06/29 12:57:39;;;;;;;3.35;0.38;;;;;;;22.01;100.00;99935.31;6286775;22;20030;-58
2021/06/29 13:00:48;;;;;;;5.22;0.88;;;;;;;21.94;100.00;99938.84;6287084;22;20024;-59
2021/06/29 13:03:53;;;;;;;1.65;0.28;;;;;;;22.15;100.00;99939.63;6287191;22;20038;-59
2021/06/29 13:07:06;;;;;;;0.75;0.30;;;;;;;22.58;100.00;99925.59;6286725;22;20026;-59
2021/06/29 13:10:10;;;;;;;1.20;0.35;;;;;;;22.87;100.00;99931.28;6286991;22;20022;-62
2021/06/29 13:13:22;;;;;;;1.08;0.30;;;;;;;22.87;100.00;99939.81;6287036;22;20019;-62
2021/06/29 13:16:26;;;;;;;1.02;0.30;;;;;;;22.86;100.00;99943.94;6287017;22;20022;-61
2021/06/29 13:19:30;;;;;;;1.33;0.40;;;;;;;22.80;100.00;99935.59;6286314;22;20019;-60
2021/06/29 13:22:45;;;;;;;1.02;0.20;;;;;;;22.84;100.00;99940.91;6286966;22;20420;-58
2021/06/29 13:25:48;;;;;;;1.70;0.40;;;;;;;22.92;100.00;99948.16;6286884;22;20023;-55
2021/06/29 13:28:53;;;;;;;0.60;0.20;;;;;;;22.80;100.00;99954.72;6286562;22;20470;-57
2021/06/29 13:31:57;;;;;;;2.17;0.15;;;;;;;22.47;100.00;99948.59;6286307;22;20026;-59
2021/06/29 13:35:05;;;;;;;1.40;0.30;;;;;;;22.08;100.00;99951.66;6286794;22;20313;-57
2021/06/29 13:38:18;;;;;;;0.95;0.10;;;;;;;22.24;100.00;99963.91;6286620;22;20320;-57
2021/06/29 13:41:36;;;;;;;0.35;0.10;;;;;;;22.44;100.00;99955.38;6268034;22;20336;-58
2021/06/29 13:44:53;;;;;;;1.00;0.10;;;;;;;22.67;100.00;99960.47;6286502;22;20459;-57
2021/06/29 13:47:57;;;;;;;0.70;0.03;;;;;;;22.60;100.00;99962.72;6286964;22;20026;-57
2021/06/29 13:51:02;;;;;;;0.55;0.32;;;;;;;22.69;100.00;99957.84;6282195;22;20034;-57
2021/06/29 13:54:14;;;;;;;0.63;0.25;;;;;;;22.81;100.00;99950.53;6286683;22;20019;-57
2021/06/29 13:57:21;;;;;;;2.20;0.30;;;;;;;22.94;100.00;99942.66;6286085;22;20023;-57
2021/06/29 14:00:30;;;;;;;2.40;0.25;;;;;;;23.04;100.00;99942.94;6286776;22;20023;-57
2021/06/29 14:03:36;;;;;;;0.80;0.10;;;;;;;23.23;100.00;99938.47;6286766;22;20018;-57
2021/06/29 14:06:39;;;;;;;0.68;0.10;;;;;;;23.00;100.00;99939.69;6286298;22;20030;-57
2021/06/29 14:09:45;;;;;;;0.50;0.10;;;;;;;22.85;100.00;99942.44;6286064;22;20023;-61
2021/06/29 14:12:58;;;;;;;1.08;0.40;;;;;;;22.82;100.00;99932.97;6286457;22;20043;-61
2021/06/29 14:16:04;;;;;;;0.93;0.10;;;;;;;22.64;100.00;99933.97;6286512;22;20031;-61
2021/06/29 14:19:07;;;;;;;0.45;0.10;;;;;;;22.41;100.00;99933.78;6286398;22;20019;-57
2021/06/29 14:22:16;;;;;;;1.95;0.20;;;;;;;22.69;100.00;99935.13;6286474;22;20022;-57
2021/06/29 14:25:19;;;;;;;1.10;0.40;;;;;;;23.04;100.00;99937.25;6286284;22;20026;-57
2021/06/29 14:28:23;;;;;;;1.02;0.40;;;;;;;23.29;100.00;99932.63;6286597;22;20027;-57